sensor_id;sensor_type;location;lat;lon;timestamp;P1;durP1;ratioP1;P2;durP2;ratioP2
73938;SDS011;62291;47.554;8.504;2022-09-21T00:00:23;8.45;;;2.75;;
73938;SDS011;62291;47.554;8.504;2022-09-21T00:02:50;6.53;;;2.42;;
73938;SDS011;62291;47.554;8.504;2022-09-21T00:05:16;7.55;;;2.78;;
73938;SDS011;62291;47.554;8.504;2022-09-21T00:07:42;6.35;;;2.35;;
73938;SDS011;62291;47.554;8.504;2022-09-21T00:10:08;9.88;;;2.35;;
73938;SDS011;62291;47.554;8.504;2022-09-21T00:12:34;7.00;;;2.30;;
73938;SDS011;62291;47.554;8.504;2022-09-21T00:15:03;7.70;;;2.90;;
73938;SDS011;62291;47.554;8.504;2022-09-21T00:17:33;6.77;;;2.73;;
73938;SDS011;62291;47.554;8.504;2022-09-21T00:20:00;5.40;;;2.42;;
73938;SDS011;62291;47.554;8.504;2022-09-21T00:22:29;6.50;;;2.88;;
73938;SDS011;62291;47.554;8.504;2022-09-21T00:24:54;7.00;;;2.67;;
73938;SDS011;62291;47.554;8.504;2022-09-21T00:27:20;8.63;;;2.80;;
73938;SDS011;62291;47.554;8.504;2022-09-21T00:29:46;9.40;;;3.05;;
73938;SDS011;62291;47.554;8.504;2022-09-21T00:32:12;6.80;;;2.83;;
73938;SDS011;62291;47.554;8.504;2022-09-21T00:34:39;7.10;;;2.75;;
73938;SDS011;62291;47.554;8.504;2022-09-21T00:37:05;5.43;;;2.95;;
73938;SDS011;62291;47.554;8.504;2022-09-21T00:39:33;14.80;;;3.20;;
73938;SDS011;62291;47.554;8.504;2022-09-21T00:41:59;7.25;;;2.90;;
73938;SDS011;62291;47.554;8.504;2022-09-21T00:44:28;8.75;;;3.28;;
73938;SDS011;62291;47.554;8.504;2022-09-21T00:46:57;6.27;;;3.00;;
73938;SDS011;62291;47.554;8.504;2022-09-21T00:49:30;7.45;;;2.95;;
73938;SDS011;62291;47.554;8.504;2022-09-21T00:51:58;6.53;;;3.00;;
73938;SDS011;62291;47.554;8.504;2022-09-21T00:54:29;9.60;;;4.13;;
73938;SDS011;62291;47.554;8.504;2022-09-21T00:57:00;6.47;;;2.83;;
73938;SDS011;62291;47.554;8.504;2022-09-21T00:59:28;7.68;;;3.00;;
73938;SDS011;62291;47.554;8.504;2022-09-21T01:01:59;6.03;;;3.03;;
73938;SDS011;62291;47.554;8.504;2022-09-21T01:04:25;7.20;;;3.63;;
73938;SDS011;62291;47.554;8.504;2022-09-21T01:06:52;7.75;;;3.17;;
73938;SDS011;62291;47.554;8.504;2022-09-21T01:09:19;6.95;;;3.63;;
73938;SDS011;62291;47.554;8.504;2022-09-21T01:11:49;9.13;;;3.80;;
73938;SDS011;62291;47.554;8.504;2022-09-21T01:17:49;8.25;;;3.40;;
73938;SDS011;62291;47.554;8.504;2022-09-21T01:20:28;11.18;;;3.72;;
73938;SDS011;62291;47.554;8.504;2022-09-21T01:26:20;6.97;;;3.28;;
73938;SDS011;62291;47.554;8.504;2022-09-21T01:31:23;7.15;;;3.72;;
73938;SDS011;62291;47.554;8.504;2022-09-21T01:33:53;7.03;;;3.65;;
73938;SDS011;62291;47.554;8.504;2022-09-21T01:36:23;6.28;;;3.47;;
73938;SDS011;62291;47.554;8.504;2022-09-21T01:38:54;9.52;;;3.47;;
73938;SDS011;62291;47.554;8.504;2022-09-21T01:41:24;9.95;;;3.83;;
73938;SDS011;62291;47.554;8.504;2022-09-21T01:43:55;13.10;;;3.90;;
73938;SDS011;62291;47.554;8.504;2022-09-21T01:46:26;9.35;;;3.80;;
73938;SDS011;62291;47.554;8.504;2022-09-21T01:48:55;8.75;;;3.65;;
73938;SDS011;62291;47.554;8.504;2022-09-21T01:51:27;7.88;;;3.40;;
73938;SDS011;62291;47.554;8.504;2022-09-21T01:53:54;10.52;;;4.38;;
73938;SDS011;62291;47.554;8.504;2022-09-21T01:56:26;7.53;;;3.67;;
73938;SDS011;62291;47.554;8.504;2022-09-21T01:59:09;8.13;;;3.47;;
73938;SDS011;62291;47.554;8.504;2022-09-21T02:02:16;4.57;;;3.30;;
73938;SDS011;62291;47.554;8.504;2022-09-21T02:04:41;5.40;;;3.50;;
73938;SDS011;62291;47.554;8.504;2022-09-21T02:07:07;7.25;;;3.92;;
73938;SDS011;62291;47.554;8.504;2022-09-21T02:09:34;5.72;;;4.10;;
73938;SDS011;62291;47.554;8.504;2022-09-21T02:12:01;14.10;;;4.05;;
73938;SDS011;62291;47.554;8.504;2022-09-21T02:14:27;11.07;;;4.05;;
73938;SDS011;62291;47.554;8.504;2022-09-21T02:22:38;8.85;;;4.93;;
73938;SDS011;62291;47.554;8.504;2022-09-21T02:25:19;10.70;;;4.80;;
73938;SDS011;62291;47.554;8.504;2022-09-21T02:27:54;11.25;;;5.07;;
73938;SDS011;62291;47.554;8.504;2022-09-21T02:30:25;13.23;;;4.75;;
73938;SDS011;62291;47.554;8.504;2022-09-21T02:32:59;11.27;;;4.57;;
73938;SDS011;62291;47.554;8.504;2022-09-21T02:35:39;10.32;;;4.68;;
73938;SDS011;62291;47.554;8.504;2022-09-21T02:43:32;12.85;;;4.40;;
73938;SDS011;62291;47.554;8.504;2022-09-21T02:46:07;8.35;;;4.50;;
73938;SDS011;62291;47.554;8.504;2022-09-21T02:48:42;11.85;;;4.68;;
73938;SDS011;62291;47.554;8.504;2022-09-21T02:51:16;9.98;;;4.55;;
73938;SDS011;62291;47.554;8.504;2022-09-21T02:53:47;8.82;;;4.25;;
73938;SDS011;62291;47.554;8.504;2022-09-21T02:56:15;10.63;;;4.60;;
73938;SDS011;62291;47.554;8.504;2022-09-21T02:58:45;8.75;;;4.30;;
73938;SDS011;62291;47.554;8.504;2022-09-21T03:01:14;11.73;;;4.75;;
73938;SDS011;62291;47.554;8.504;2022-09-21T03:03:41;10.27;;;4.20;;
73938;SDS011;62291;47.554;8.504;2022-09-21T03:06:07;11.77;;;4.20;;
73938;SDS011;62291;47.554;8.504;2022-09-21T03:08:32;8.02;;;4.57;;
73938;SDS011;62291;47.554;8.504;2022-09-21T03:10:58;9.63;;;4.00;;
73938;SDS011;62291;47.554;8.504;2022-09-21T03:13:25;10.23;;;4.05;;
73938;SDS011;62291;47.554;8.504;2022-09-21T03:15:57;8.52;;;4.32;;
73938;SDS011;62291;47.554;8.504;2022-09-21T03:18:24;7.82;;;4.47;;
73938;SDS011;62291;47.554;8.504;2022-09-21T03:20:50;11.77;;;4.75;;
73938;SDS011;62291;47.554;8.504;2022-09-21T03:23:16;10.50;;;4.38;;
73938;SDS011;62291;47.554;8.504;2022-09-21T03:25:44;10.75;;;4.43;;
73938;SDS011;62291;47.554;8.504;2022-09-21T03:28:11;9.23;;;4.50;;
73938;SDS011;62291;47.554;8.504;2022-09-21T03:30:38;8.90;;;4.53;;
73938;SDS011;62291;47.554;8.504;2022-09-21T03:33:04;12.93;;;5.25;;
73938;SDS011;62291;47.554;8.504;2022-09-21T03:35:30;7.72;;;4.15;;
73938;SDS011;62291;47.554;8.504;2022-09-21T03:37:59;9.73;;;4.63;;
73938;SDS011;62291;47.554;8.504;2022-09-21T03:40:26;10.10;;;4.68;;
73938;SDS011;62291;47.554;8.504;2022-09-21T03:42:52;8.38;;;4.80;;
73938;SDS011;62291;47.554;8.504;2022-09-21T03:45:19;10.45;;;4.60;;
73938;SDS011;62291;47.554;8.504;2022-09-21T03:47:48;10.93;;;4.90;;
73938;SDS011;62291;47.554;8.504;2022-09-21T03:50:14;9.82;;;4.85;;
73938;SDS011;62291;47.554;8.504;2022-09-21T03:52:40;9.88;;;4.38;;
73938;SDS011;62291;47.554;8.504;2022-09-21T03:55:06;13.13;;;4.95;;
73938;SDS011;62291;47.554;8.504;2022-09-21T03:57:33;7.13;;;4.43;;
73938;SDS011;62291;47.554;8.504;2022-09-21T04:00:00;9.70;;;5.38;;
73938;SDS011;62291;47.554;8.504;2022-09-21T04:02:30;14.97;;;5.43;;
73938;SDS011;62291;47.554;8.504;2022-09-21T04:04:56;11.32;;;5.47;;
73938;SDS011;62291;47.554;8.504;2022-09-21T04:07:22;9.18;;;5.10;;
73938;SDS011;62291;47.554;8.504;2022-09-21T04:09:48;9.93;;;5.28;;
73938;SDS011;62291;47.554;8.504;2022-09-21T04:12:14;11.60;;;5.43;;
73938;SDS011;62291;47.554;8.504;2022-09-21T04:14:39;8.35;;;4.40;;
73938;SDS011;62291;47.554;8.504;2022-09-21T04:17:05;9.57;;;5.68;;
73938;SDS011;62291;47.554;8.504;2022-09-21T04:19:30;10.63;;;5.50;;
73938;SDS011;62291;47.554;8.504;2022-09-21T04:21:56;14.20;;;6.85;;
73938;SDS011;62291;47.554;8.504;2022-09-21T04:24:22;11.48;;;5.20;;
73938;SDS011;62291;47.554;8.504;2022-09-21T04:26:48;9.88;;;5.50;;
73938;SDS011;62291;47.554;8.504;2022-09-21T04:29:14;9.43;;;4.85;;
73938;SDS011;62291;47.554;8.504;2022-09-21T04:31:40;12.45;;;5.97;;
73938;SDS011;62291;47.554;8.504;2022-09-21T04:34:07;12.40;;;5.75;;
73938;SDS011;62291;47.554;8.504;2022-09-21T04:36:36;13.88;;;6.07;;
73938;SDS011;62291;47.554;8.504;2022-09-21T04:39:02;11.52;;;6.22;;
73938;SDS011;62291;47.554;8.504;2022-09-21T04:41:28;8.60;;;6.38;;
73938;SDS011;62291;47.554;8.504;2022-09-21T04:43:54;10.40;;;6.03;;
73938;SDS011;62291;47.554;8.504;2022-09-21T04:46:19;11.23;;;6.25;;
73938;SDS011;62291;47.554;8.504;2022-09-21T04:48:45;14.70;;;6.68;;
73938;SDS011;62291;47.554;8.504;2022-09-21T04:51:12;10.93;;;6.63;;
73938;SDS011;62291;47.554;8.504;2022-09-21T04:53:39;10.18;;;7.05;;
73938;SDS011;62291;47.554;8.504;2022-09-21T04:56:07;14.68;;;7.03;;
73938;SDS011;62291;47.554;8.504;2022-09-21T04:58:34;14.13;;;7.45;;
73938;SDS011;62291;47.554;8.504;2022-09-21T05:01:00;10.43;;;6.60;;
73938;SDS011;62291;47.554;8.504;2022-09-21T05:03:26;18.65;;;7.47;;
73938;SDS011;62291;47.554;8.504;2022-09-21T05:05:52;17.55;;;7.38;;
73938;SDS011;62291;47.554;8.504;2022-09-21T05:08:20;14.02;;;7.60;;
73938;SDS011;62291;47.554;8.504;2022-09-21T05:11:05;14.05;;;7.43;;
73938;SDS011;62291;47.554;8.504;2022-09-21T05:13:31;14.82;;;8.07;;
73938;SDS011;62291;47.554;8.504;2022-09-21T05:15:57;13.93;;;7.20;;
73938;SDS011;62291;47.554;8.504;2022-09-21T05:18:23;16.65;;;6.70;;
73938;SDS011;62291;47.554;8.504;2022-09-21T05:20:58;14.23;;;7.03;;
73938;SDS011;62291;47.554;8.504;2022-09-21T05:23:25;14.45;;;7.03;;
73938;SDS011;62291;47.554;8.504;2022-09-21T05:25:53;12.57;;;6.60;;
73938;SDS011;62291;47.554;8.504;2022-09-21T05:28:19;18.13;;;7.60;;
73938;SDS011;62291;47.554;8.504;2022-09-21T05:33:31;13.82;;;7.00;;
73938;SDS011;62291;47.554;8.504;2022-09-21T05:38:44;12.10;;;5.93;;
73938;SDS011;62291;47.554;8.504;2022-09-21T05:41:10;11.07;;;5.35;;
73938;SDS011;62291;47.554;8.504;2022-09-21T05:43:36;6.85;;;4.55;;
73938;SDS011;62291;47.554;8.504;2022-09-21T05:46:04;8.25;;;4.40;;
73938;SDS011;62291;47.554;8.504;2022-09-21T05:48:46;6.20;;;3.60;;
73938;SDS011;62291;47.554;8.504;2022-09-21T05:54:17;6.82;;;3.45;;
73938;SDS011;62291;47.554;8.504;2022-09-21T05:57:04;4.78;;;2.63;;
73938;SDS011;62291;47.554;8.504;2022-09-21T06:00:00;6.95;;;2.92;;
73938;SDS011;62291;47.554;8.504;2022-09-21T06:05:17;6.40;;;2.90;;
73938;SDS011;62291;47.554;8.504;2022-09-21T06:07:43;6.93;;;3.00;;
73938;SDS011;62291;47.554;8.504;2022-09-21T06:10:09;7.22;;;3.22;;
73938;SDS011;62291;47.554;8.504;2022-09-21T06:12:36;8.93;;;3.53;;
73938;SDS011;62291;47.554;8.504;2022-09-21T06:15:03;6.80;;;3.13;;
73938;SDS011;62291;47.554;8.504;2022-09-21T06:17:31;6.53;;;2.80;;
73938;SDS011;62291;47.554;8.504;2022-09-21T06:19:57;6.75;;;2.60;;
73938;SDS011;62291;47.554;8.504;2022-09-21T06:22:23;6.55;;;2.80;;
73938;SDS011;62291;47.554;8.504;2022-09-21T06:24:49;4.97;;;2.85;;
73938;SDS011;62291;47.554;8.504;2022-09-21T06:27:14;5.50;;;3.10;;
73938;SDS011;62291;47.554;8.504;2022-09-21T06:29:40;5.57;;;3.10;;
73938;SDS011;62291;47.554;8.504;2022-09-21T06:32:05;5.15;;;3.13;;
73938;SDS011;62291;47.554;8.504;2022-09-21T06:34:31;5.95;;;3.20;;
73938;SDS011;62291;47.554;8.504;2022-09-21T06:36:57;7.43;;;3.40;;
73938;SDS011;62291;47.554;8.504;2022-09-21T06:39:22;5.30;;;3.38;;
73938;SDS011;62291;47.554;8.504;2022-09-21T06:41:48;7.80;;;3.75;;
73938;SDS011;62291;47.554;8.504;2022-09-21T06:44:13;6.60;;;3.10;;
73938;SDS011;62291;47.554;8.504;2022-09-21T06:46:39;7.85;;;3.25;;
73938;SDS011;62291;47.554;8.504;2022-09-21T06:49:05;6.43;;;3.10;;
73938;SDS011;62291;47.554;8.504;2022-09-21T06:51:30;7.35;;;3.35;;
73938;SDS011;62291;47.554;8.504;2022-09-21T06:53:56;6.93;;;3.00;;
73938;SDS011;62291;47.554;8.504;2022-09-21T06:56:23;5.13;;;3.00;;
73938;SDS011;62291;47.554;8.504;2022-09-21T06:58:49;7.40;;;3.28;;
73938;SDS011;62291;47.554;8.504;2022-09-21T07:01:16;5.65;;;3.20;;
73938;SDS011;62291;47.554;8.504;2022-09-21T07:03:43;7.03;;;3.22;;
73938;SDS011;62291;47.554;8.504;2022-09-21T07:06:09;6.43;;;3.08;;
73938;SDS011;62291;47.554;8.504;2022-09-21T07:08:36;9.90;;;4.05;;
73938;SDS011;62291;47.554;8.504;2022-09-21T07:11:04;5.22;;;2.88;;
73938;SDS011;62291;47.554;8.504;2022-09-21T07:13:30;6.57;;;3.22;;
73938;SDS011;62291;47.554;8.504;2022-09-21T07:15:56;8.00;;;2.83;;
73938;SDS011;62291;47.554;8.504;2022-09-21T07:18:21;5.45;;;2.95;;
73938;SDS011;62291;47.554;8.504;2022-09-21T07:20:47;7.50;;;3.20;;
73938;SDS011;62291;47.554;8.504;2022-09-21T07:23:14;5.63;;;2.78;;
73938;SDS011;62291;47.554;8.504;2022-09-21T07:25:42;4.05;;;2.50;;
73938;SDS011;62291;47.554;8.504;2022-09-21T07:28:09;3.83;;;2.28;;
73938;SDS011;62291;47.554;8.504;2022-09-21T07:30:36;7.05;;;3.42;;
73938;SDS011;62291;47.554;8.504;2022-09-21T07:33:02;4.65;;;2.58;;
73938;SDS011;62291;47.554;8.504;2022-09-21T07:35:28;6.22;;;3.03;;
73938;SDS011;62291;47.554;8.504;2022-09-21T07:37:58;6.10;;;2.70;;
73938;SDS011;62291;47.554;8.504;2022-09-21T07:40:25;5.32;;;2.50;;
73938;SDS011;62291;47.554;8.504;2022-09-21T07:42:50;5.70;;;2.58;;
73938;SDS011;62291;47.554;8.504;2022-09-21T07:45:16;4.32;;;2.75;;
73938;SDS011;62291;47.554;8.504;2022-09-21T07:47:42;4.85;;;2.47;;
73938;SDS011;62291;47.554;8.504;2022-09-21T07:50:08;4.95;;;2.55;;
73938;SDS011;62291;47.554;8.504;2022-09-21T07:52:34;5.72;;;2.63;;
73938;SDS011;62291;47.554;8.504;2022-09-21T07:54:59;4.50;;;3.33;;
73938;SDS011;62291;47.554;8.504;2022-09-21T07:57:26;5.75;;;2.58;;
73938;SDS011;62291;47.554;8.504;2022-09-21T08:00:10;6.05;;;2.60;;
73938;SDS011;62291;47.554;8.504;2022-09-21T08:02:36;5.22;;;2.65;;
73938;SDS011;62291;47.554;8.504;2022-09-21T08:05:01;5.93;;;2.90;;
73938;SDS011;62291;47.554;8.504;2022-09-21T08:07:27;7.07;;;2.75;;
73938;SDS011;62291;47.554;8.504;2022-09-21T08:09:53;6.97;;;2.92;;
73938;SDS011;62291;47.554;8.504;2022-09-21T08:12:19;4.72;;;2.60;;
73938;SDS011;62291;47.554;8.504;2022-09-21T08:14:45;7.18;;;2.53;;
73938;SDS011;62291;47.554;8.504;2022-09-21T08:17:14;4.95;;;2.67;;
73938;SDS011;62291;47.554;8.504;2022-09-21T08:19:39;7.47;;;2.88;;
73938;SDS011;62291;47.554;8.504;2022-09-21T08:22:05;6.32;;;2.72;;
73938;SDS011;62291;47.554;8.504;2022-09-21T08:24:31;8.60;;;3.05;;
73938;SDS011;62291;47.554;8.504;2022-09-21T08:26:57;6.03;;;2.10;;
73938;SDS011;62291;47.554;8.504;2022-09-21T08:29:24;5.25;;;2.47;;
73938;SDS011;62291;47.554;8.504;2022-09-21T08:31:50;6.40;;;3.33;;
73938;SDS011;62291;47.554;8.504;2022-09-21T08:34:17;5.78;;;2.72;;
73938;SDS011;62291;47.554;8.504;2022-09-21T08:36:43;7.13;;;2.78;;
73938;SDS011;62291;47.554;8.504;2022-09-21T08:39:10;7.55;;;2.70;;
73938;SDS011;62291;47.554;8.504;2022-09-21T08:41:56;6.75;;;2.25;;
73938;SDS011;62291;47.554;8.504;2022-09-21T08:47:16;8.27;;;3.22;;
73938;SDS011;62291;47.554;8.504;2022-09-21T08:49:50;7.63;;;3.03;;
73938;SDS011;62291;47.554;8.504;2022-09-21T08:52:19;6.70;;;2.30;;
73938;SDS011;62291;47.554;8.504;2022-09-21T08:57:19;6.03;;;2.67;;
73938;SDS011;62291;47.554;8.504;2022-09-21T08:59:47;6.53;;;2.78;;
73938;SDS011;62291;47.554;8.504;2022-09-21T09:20:02;3.67;;;1.92;;
73938;SDS011;62291;47.554;8.504;2022-09-21T09:23:12;4.88;;;2.22;;
73938;SDS011;62291;47.554;8.504;2022-09-21T09:25:49;3.88;;;1.63;;
73938;SDS011;62291;47.554;8.504;2022-09-21T09:33:57;4.00;;;1.83;;
73938;SDS011;62291;47.554;8.504;2022-09-21T09:36:35;3.20;;;1.50;;
73938;SDS011;62291;47.554;8.504;2022-09-21T09:39:13;2.83;;;1.50;;
73938;SDS011;62291;47.554;8.504;2022-09-21T09:50:04;7.13;;;1.48;;
73938;SDS011;62291;47.554;8.504;2022-09-21T09:52:37;5.03;;;1.42;;
73938;SDS011;62291;47.554;8.504;2022-09-21T09:55:13;7.88;;;1.30;;
73938;SDS011;62291;47.554;8.504;2022-09-21T09:57:46;5.57;;;1.55;;
73938;SDS011;62291;47.554;8.504;2022-09-21T10:00:13;2.35;;;1.10;;
73938;SDS011;62291;47.554;8.504;2022-09-21T10:05:20;3.28;;;1.25;;
73938;SDS011;62291;47.554;8.504;2022-09-21T10:07:54;6.00;;;1.45;;
73938;SDS011;62291;47.554;8.504;2022-09-21T10:10:31;5.43;;;1.00;;
73938;SDS011;62291;47.554;8.504;2022-09-21T10:13:11;3.97;;;1.00;;
73938;SDS011;62291;47.554;8.504;2022-09-21T10:15:49;5.03;;;1.52;;
73938;SDS011;62291;47.554;8.504;2022-09-21T10:20:56;3.25;;;1.20;;
73938;SDS011;62291;47.554;8.504;2022-09-21T10:23:33;8.40;;;1.08;;
73938;SDS011;62291;47.554;8.504;2022-09-21T10:28:34;2.40;;;1.23;;
73938;SDS011;62291;47.554;8.504;2022-09-21T10:31:10;3.90;;;1.10;;
73938;SDS011;62291;47.554;8.504;2022-09-21T10:33:47;3.67;;;1.35;;
73938;SDS011;62291;47.554;8.504;2022-09-21T10:36:29;4.18;;;1.00;;
73938;SDS011;62291;47.554;8.504;2022-09-21T10:41:54;6.13;;;1.30;;
73938;SDS011;62291;47.554;8.504;2022-09-21T10:44:39;3.80;;;1.40;;
73938;SDS011;62291;47.554;8.504;2022-09-21T10:49:57;2.55;;;1.20;;
73938;SDS011;62291;47.554;8.504;2022-09-21T10:52:32;5.20;;;1.00;;
73938;SDS011;62291;47.554;8.504;2022-09-21T10:55:00;3.35;;;1.17;;
73938;SDS011;62291;47.554;8.504;2022-09-21T10:57:26;5.28;;;1.23;;
73938;SDS011;62291;47.554;8.504;2022-09-21T10:59:53;3.20;;;1.10;;
73938;SDS011;62291;47.554;8.504;2022-09-21T11:05:00;2.20;;;0.60;;
73938;SDS011;62291;47.554;8.504;2022-09-21T11:07:36;3.33;;;1.50;;
73938;SDS011;62291;47.554;8.504;2022-09-21T11:10:15;4.82;;;0.88;;
73938;SDS011;62291;47.554;8.504;2022-09-21T11:16:15;3.65;;;1.67;;
73938;SDS011;62291;47.554;8.504;2022-09-21T11:27:37;3.72;;;0.70;;
73938;SDS011;62291;47.554;8.504;2022-09-21T11:30:10;1.30;;;0.60;;
73938;SDS011;62291;47.554;8.504;2022-09-21T11:46:30;2.35;;;0.60;;
73938;SDS011;62291;47.554;8.504;2022-09-21T11:57:12;3.15;;;0.95;;
73938;SDS011;62291;47.554;8.504;2022-09-21T12:08:13;4.43;;;0.80;;
73938;SDS011;62291;47.554;8.504;2022-09-21T12:21:53;1.52;;;0.68;;
73938;SDS011;62291;47.554;8.504;2022-09-21T12:24:26;2.03;;;0.52;;
73938;SDS011;62291;47.554;8.504;2022-09-21T12:26:56;3.00;;;0.55;;
73938;SDS011;62291;47.554;8.504;2022-09-21T12:29:33;2.10;;;0.75;;
73938;SDS011;62291;47.554;8.504;2022-09-21T12:34:51;2.30;;;0.60;;
73938;SDS011;62291;47.554;8.504;2022-09-21T12:45:31;0.68;;;0.40;;
73938;SDS011;62291;47.554;8.504;2022-09-21T12:48:08;2.65;;;0.77;;
73938;SDS011;62291;47.554;8.504;2022-09-21T12:50:57;2.20;;;0.60;;
73938;SDS011;62291;47.554;8.504;2022-09-21T12:53:35;4.22;;;0.60;;
73938;SDS011;62291;47.554;8.504;2022-09-21T12:56:05;2.35;;;1.15;;
73938;SDS011;62291;47.554;8.504;2022-09-21T12:58:47;5.47;;;0.70;;
73938;SDS011;62291;47.554;8.504;2022-09-21T13:09:27;7.03;;;0.68;;
73938;SDS011;62291;47.554;8.504;2022-09-21T13:11:54;4.88;;;0.50;;
73938;SDS011;62291;47.554;8.504;2022-09-21T13:14:22;2.47;;;0.60;;
73938;SDS011;62291;47.554;8.504;2022-09-21T13:16:54;2.33;;;0.60;;
73938;SDS011;62291;47.554;8.504;2022-09-21T13:19:23;5.63;;;0.68;;
73938;SDS011;62291;47.554;8.504;2022-09-21T13:24:38;1.58;;;0.55;;
73938;SDS011;62291;47.554;8.504;2022-09-21T13:27:06;1.00;;;0.55;;
73938;SDS011;62291;47.554;8.504;2022-09-21T13:29:33;1.42;;;0.50;;
73938;SDS011;62291;47.554;8.504;2022-09-21T13:34:41;1.23;;;0.50;;
73938;SDS011;62291;47.554;8.504;2022-09-21T13:39:47;2.28;;;0.57;;
73938;SDS011;62291;47.554;8.504;2022-09-21T13:47:43;3.90;;;0.90;;
73938;SDS011;62291;47.554;8.504;2022-09-21T13:50:15;2.17;;;0.60;;
73938;SDS011;62291;47.554;8.504;2022-09-21T13:52:47;2.22;;;0.60;;
73938;SDS011;62291;47.554;8.504;2022-09-21T13:55:32;3.00;;;0.55;;
73938;SDS011;62291;47.554;8.504;2022-09-21T13:58:04;1.65;;;0.63;;
73938;SDS011;62291;47.554;8.504;2022-09-21T14:00:49;1.05;;;0.50;;
73938;SDS011;62291;47.554;8.504;2022-09-21T14:03:23;1.77;;;0.40;;
73938;SDS011;62291;47.554;8.504;2022-09-21T14:06:05;4.13;;;0.60;;
73938;SDS011;62291;47.554;8.504;2022-09-21T14:08:55;1.98;;;0.50;;
73938;SDS011;62291;47.554;8.504;2022-09-21T14:14:04;2.22;;;0.60;;
73938;SDS011;62291;47.554;8.504;2022-09-21T14:24:43;7.05;;;0.63;;
73938;SDS011;62291;47.554;8.504;2022-09-21T14:27:37;2.25;;;0.50;;
73938;SDS011;62291;47.554;8.504;2022-09-21T14:30:21;1.83;;;0.47;;
73938;SDS011;62291;47.554;8.504;2022-09-21T14:35:29;2.70;;;0.50;;
73938;SDS011;62291;47.554;8.504;2022-09-21T14:37:58;5.28;;;0.60;;
73938;SDS011;62291;47.554;8.504;2022-09-21T14:40:46;5.80;;;0.50;;
73938;SDS011;62291;47.554;8.504;2022-09-21T14:43:15;3.13;;;0.50;;
73938;SDS011;62291;47.554;8.504;2022-09-21T14:45:55;3.47;;;0.40;;
73938;SDS011;62291;47.554;8.504;2022-09-21T14:48:42;3.83;;;0.70;;
73938;SDS011;62291;47.554;8.504;2022-09-21T14:51:42;0.90;;;0.40;;
73938;SDS011;62291;47.554;8.504;2022-09-21T15:02:28;1.85;;;0.40;;
73938;SDS011;62291;47.554;8.504;2022-09-21T15:04:59;3.15;;;0.40;;
73938;SDS011;62291;47.554;8.504;2022-09-21T15:07:30;2.55;;;0.32;;
73938;SDS011;62291;47.554;8.504;2022-09-21T15:22:08;0.93;;;0.30;;
73938;SDS011;62291;47.554;8.504;2022-09-21T15:24:49;1.23;;;0.40;;
73938;SDS011;62291;47.554;8.504;2022-09-21T15:27:21;1.30;;;0.40;;
73938;SDS011;62291;47.554;8.504;2022-09-21T15:29:50;2.35;;;0.32;;
73938;SDS011;62291;47.554;8.504;2022-09-21T15:35:02;1.33;;;0.45;;
73938;SDS011;62291;47.554;8.504;2022-09-21T15:37:34;0.95;;;0.30;;
73938;SDS011;62291;47.554;8.504;2022-09-21T15:40:02;0.63;;;0.35;;
73938;SDS011;62291;47.554;8.504;2022-09-21T15:42:30;2.33;;;0.35;;
73938;SDS011;62291;47.554;8.504;2022-09-21T15:45:16;2.90;;;0.35;;
73938;SDS011;62291;47.554;8.504;2022-09-21T15:47:43;1.85;;;0.40;;
73938;SDS011;62291;47.554;8.504;2022-09-21T15:50:15;1.40;;;0.40;;
73938;SDS011;62291;47.554;8.504;2022-09-21T15:52:45;0.70;;;0.30;;
73938;SDS011;62291;47.554;8.504;2022-09-21T15:55:16;1.95;;;0.30;;
73938;SDS011;62291;47.554;8.504;2022-09-21T15:57:48;2.78;;;0.50;;
73938;SDS011;62291;47.554;8.504;2022-09-21T16:00:23;1.25;;;0.30;;
73938;SDS011;62291;47.554;8.504;2022-09-21T16:02:54;1.00;;;0.20;;
73938;SDS011;62291;47.554;8.504;2022-09-21T16:05:29;1.77;;;0.30;;
73938;SDS011;62291;47.554;8.504;2022-09-21T16:08:04;1.25;;;0.22;;
73938;SDS011;62291;47.554;8.504;2022-09-21T16:10:40;2.95;;;0.50;;
73938;SDS011;62291;47.554;8.504;2022-09-21T16:16:14;0.60;;;0.20;;
73938;SDS011;62291;47.554;8.504;2022-09-21T16:18:50;2.30;;;0.30;;
73938;SDS011;62291;47.554;8.504;2022-09-21T16:21:33;2.58;;;0.40;;
73938;SDS011;62291;47.554;8.504;2022-09-21T16:24:17;2.78;;;0.32;;
73938;SDS011;62291;47.554;8.504;2022-09-21T16:26:56;4.05;;;0.68;;
73938;SDS011;62291;47.554;8.504;2022-09-21T16:29:36;2.15;;;0.35;;
73938;SDS011;62291;47.554;8.504;2022-09-21T16:34:50;1.47;;;0.60;;
73938;SDS011;62291;47.554;8.504;2022-09-21T16:39:51;1.38;;;0.40;;
73938;SDS011;62291;47.554;8.504;2022-09-21T16:42:18;2.53;;;0.40;;
73938;SDS011;62291;47.554;8.504;2022-09-21T16:44:45;3.08;;;0.60;;
73938;SDS011;62291;47.554;8.504;2022-09-21T16:49:46;2.65;;;0.40;;
73938;SDS011;62291;47.554;8.504;2022-09-21T16:52:12;0.68;;;0.35;;
73938;SDS011;62291;47.554;8.504;2022-09-21T16:54:40;1.13;;;0.35;;
73938;SDS011;62291;47.554;8.504;2022-09-21T16:57:06;0.95;;;0.50;;
73938;SDS011;62291;47.554;8.504;2022-09-21T16:59:31;1.25;;;0.40;;
73938;SDS011;62291;47.554;8.504;2022-09-21T17:01:58;1.30;;;0.45;;
73938;SDS011;62291;47.554;8.504;2022-09-21T17:04:28;2.15;;;0.50;;
73938;SDS011;62291;47.554;8.504;2022-09-21T17:06:55;3.20;;;0.50;;
73938;SDS011;62291;47.554;8.504;2022-09-21T17:09:25;1.13;;;0.40;;
73938;SDS011;62291;47.554;8.504;2022-09-21T17:11:59;1.15;;;0.38;;
73938;SDS011;62291;47.554;8.504;2022-09-21T17:14:30;0.47;;;0.30;;
73938;SDS011;62291;47.554;8.504;2022-09-21T17:17:00;4.13;;;0.50;;
73938;SDS011;62291;47.554;8.504;2022-09-21T17:19:32;4.00;;;0.50;;
73938;SDS011;62291;47.554;8.504;2022-09-21T17:22:01;0.98;;;0.43;;
73938;SDS011;62291;47.554;8.504;2022-09-21T17:24:28;1.25;;;0.40;;
73938;SDS011;62291;47.554;8.504;2022-09-21T17:26:55;3.15;;;0.40;;
73938;SDS011;62291;47.554;8.504;2022-09-21T17:29:22;1.30;;;0.70;;
73938;SDS011;62291;47.554;8.504;2022-09-21T17:31:51;1.08;;;0.40;;
73938;SDS011;62291;47.554;8.504;2022-09-21T17:34:26;2.83;;;0.47;;
73938;SDS011;62291;47.554;8.504;2022-09-21T17:36:54;2.28;;;0.60;;
73938;SDS011;62291;47.554;8.504;2022-09-21T17:39:20;0.90;;;0.50;;
73938;SDS011;62291;47.554;8.504;2022-09-21T17:41:57;1.10;;;0.50;;
73938;SDS011;62291;47.554;8.504;2022-09-21T17:44:40;3.63;;;0.40;;
73938;SDS011;62291;47.554;8.504;2022-09-21T17:47:41;2.67;;;0.40;;
73938;SDS011;62291;47.554;8.504;2022-09-21T17:52:38;3.35;;;0.40;;
73938;SDS011;62291;47.554;8.504;2022-09-21T17:55:25;5.18;;;0.82;;
73938;SDS011;62291;47.554;8.504;2022-09-21T18:01:09;2.67;;;0.68;;
73938;SDS011;62291;47.554;8.504;2022-09-21T18:03:57;1.45;;;0.63;;
73938;SDS011;62291;47.554;8.504;2022-09-21T18:06:23;2.53;;;0.68;;
73938;SDS011;62291;47.554;8.504;2022-09-21T18:08:50;2.17;;;0.60;;
73938;SDS011;62291;47.554;8.504;2022-09-21T18:24:49;2.05;;;0.60;;
73938;SDS011;62291;47.554;8.504;2022-09-21T18:27:18;1.55;;;0.55;;
73938;SDS011;62291;47.554;8.504;2022-09-21T18:29:45;1.98;;;0.50;;
73938;SDS011;62291;47.554;8.504;2022-09-21T18:32:22;1.38;;;0.40;;
73938;SDS011;62291;47.554;8.504;2022-09-21T18:35:25;1.30;;;0.50;;
73938;SDS011;62291;47.554;8.504;2022-09-21T18:45:58;1.85;;;0.52;;
73938;SDS011;62291;47.554;8.504;2022-09-21T18:48:44;1.30;;;0.70;;
73938;SDS011;62291;47.554;8.504;2022-09-21T18:51:26;4.65;;;0.63;;
73938;SDS011;62291;47.554;8.504;2022-09-21T18:54:02;1.30;;;0.50;;
73938;SDS011;62291;47.554;8.504;2022-09-21T18:56:35;1.48;;;0.50;;
73938;SDS011;62291;47.554;8.504;2022-09-21T18:59:02;2.95;;;0.60;;
73938;SDS011;62291;47.554;8.504;2022-09-21T19:01:28;3.42;;;0.50;;
73938;SDS011;62291;47.554;8.504;2022-09-21T19:03:57;3.72;;;0.73;;
73938;SDS011;62291;47.554;8.504;2022-09-21T19:12:17;1.55;;;0.75;;
73938;SDS011;62291;47.554;8.504;2022-09-21T19:17:51;1.60;;;0.60;;
73938;SDS011;62291;47.554;8.504;2022-09-21T19:20:43;1.92;;;0.60;;